createdAt,value
2022-11-26T00:01:42.321Z,160.40
2022-11-26T00:04:09.671Z,151.70
2022-11-26T00:06:42.120Z,152.60
2022-11-26T00:09:18.571Z,150.90
2022-11-26T00:11:45.234Z,155.60
2022-11-26T00:14:16.349Z,147.30
2022-11-26T00:16:44.528Z,134.70
2022-11-26T00:19:12.488Z,159.00
2022-11-26T00:21:40.603Z,152.10
2022-11-26T00:24:33.524Z,149.40
2022-11-26T00:27:00.118Z,162.40
2022-11-26T00:29:26.975Z,160.00
2022-11-26T00:31:53.664Z,150.80
2022-11-26T00:34:20.461Z,148.40
2022-11-26T00:36:47.805Z,174.40
2022-11-26T00:39:25.521Z,161.00
2022-11-26T00:41:52.669Z,163.20
2022-11-26T00:44:24.793Z,169.60
2022-11-26T00:46:53.895Z,170.00
2022-11-26T00:49:20.367Z,167.40
2022-11-26T00:51:47.658Z,165.30
2022-11-26T00:54:16.977Z,175.50
2022-11-26T00:56:45.963Z,181.10
2022-11-26T00:59:15.621Z,170.80
2022-11-26T01:01:42.110Z,168.80
2022-11-26T01:04:08.844Z,163.60
2022-11-26T01:06:38.986Z,155.70
2022-11-26T01:09:08.008Z,164.70
2022-11-26T01:11:36.585Z,170.30
2022-11-26T01:14:06.609Z,160.20
2022-11-26T01:16:38.884Z,154.30
2022-11-26T01:19:11.866Z,165.30
2022-11-26T01:21:42.614Z,155.70
2022-11-26T01:24:10.256Z,157.80
2022-11-26T01:26:43.902Z,157.40
2022-11-26T01:29:18.814Z,158.70
2022-11-26T01:31:46.498Z,163.60
2022-11-26T01:34:13.196Z,168.30
2022-11-26T01:36:42.233Z,156.90
2022-11-26T01:39:23.176Z,154.00
2022-11-26T01:42:15.175Z,154.10
2022-11-26T01:44:44.080Z,152.30
2022-11-26T01:47:27.093Z,159.10
2022-11-26T01:50:37.634Z,137.20
2022-11-26T01:53:15.519Z,155.50
2022-11-26T01:55:52.685Z,136.30
2022-11-26T01:58:40.038Z,143.00
2022-11-26T02:01:07.524Z,144.60
2022-11-26T02:03:42.502Z,147.00
2022-11-26T02:06:17.706Z,132.80
2022-11-26T02:08:44.951Z,130.40
2022-11-26T02:11:20.411Z,130.50
2022-11-26T02:13:51.738Z,128.40
2022-11-26T02:16:58.349Z,130.60
2022-11-26T02:19:53.750Z,126.30
2022-11-26T02:22:51.396Z,131.70
2022-11-26T02:25:23.740Z,130.70
2022-11-26T02:28:17.440Z,128.30
2022-11-26T02:30:48.462Z,117.20
2022-11-26T02:33:25.966Z,119.60
2022-11-26T02:36:12.951Z,120.50
2022-11-26T02:38:42.299Z,124.60
2022-11-26T02:41:09.006Z,122.20
2022-11-26T02:43:35.942Z,124.50
2022-11-26T02:46:14.973Z,119.10
2022-11-26T02:48:49.742Z,118.70
2022-11-26T02:51:22.210Z,117.30
2022-11-26T02:56:26.143Z,116.60
2022-11-26T02:58:55.683Z,125.10
2022-11-26T03:01:36.218Z,124.50
2022-11-26T03:04:09.377Z,130.80
2022-11-26T03:06:36.325Z,113.80
2022-11-26T03:09:03.844Z,119.70
2022-11-26T03:11:30.316Z,117.10
2022-11-26T03:13:56.811Z,118.00
2022-11-26T03:16:23.415Z,140.10
2022-11-26T03:18:52.381Z,113.70
2022-11-26T03:21:18.902Z,127.50
2022-11-26T03:23:45.770Z,125.60
2022-11-26T03:26:13.767Z,124.90
2022-11-26T03:28:40.287Z,122.40
2022-11-26T03:31:07.386Z,116.40
2022-11-26T03:33:39.775Z,124.10
2022-11-26T03:36:06.743Z,132.00
2022-11-26T03:38:33.168Z,126.60
2022-11-26T03:41:03.300Z,140.20
2022-11-26T03:43:30.054Z,127.80
2022-11-26T03:45:59.381Z,136.70
2022-11-26T03:48:26.015Z,151.20
2022-11-26T03:50:54.265Z,135.40
2022-11-26T03:53:25.147Z,121.50
2022-11-26T03:55:51.549Z,131.30
2022-11-26T03:58:17.982Z,122.30
2022-11-26T04:00:44.471Z,126.50
2022-11-26T04:03:10.840Z,126.70
2022-11-26T04:05:37.335Z,123.50
2022-11-26T04:08:03.880Z,136.20
2022-11-26T04:10:30.511Z,121.90
2022-11-26T04:12:56.916Z,131.20
2022-11-26T04:15:23.251Z,140.60
2022-11-26T04:17:49.707Z,147.30
2022-11-26T04:20:16.207Z,140.20
2022-11-26T04:22:42.567Z,129.60
2022-11-26T04:25:09.231Z,138.60
2022-11-26T04:27:35.867Z,137.20
2022-11-26T04:30:05.169Z,146.20
2022-11-26T04:32:31.597Z,148.80
2022-11-26T04:34:57.981Z,137.60
2022-11-26T04:37:24.554Z,148.30
2022-11-26T04:39:51.086Z,153.60
2022-11-26T04:42:17.515Z,136.10
2022-11-26T04:44:43.903Z,133.50
2022-11-26T04:47:10.311Z,132.10
2022-11-26T04:49:36.753Z,133.70
2022-11-26T04:52:03.295Z,128.70
2022-11-26T04:54:29.698Z,125.50
2022-11-26T04:56:56.244Z,133.60
2022-11-26T04:59:22.691Z,127.30
2022-11-26T05:01:49.230Z,132.70
2022-11-26T05:04:15.652Z,142.40
2022-11-26T05:06:42.465Z,119.60
2022-11-26T05:09:08.955Z,129.30
2022-11-26T05:11:35.349Z,127.80
2022-11-26T05:14:01.789Z,120.10
2022-11-26T05:16:28.296Z,128.50
2022-11-26T05:18:54.753Z,126.50
2022-11-26T05:21:21.187Z,119.30
2022-11-26T05:23:47.644Z,117.00
2022-11-26T05:26:13.993Z,115.70
2022-11-26T05:28:40.522Z,105.30
2022-11-26T05:31:07.219Z,111.00
2022-11-26T05:33:33.704Z,104.50
2022-11-26T05:36:00.295Z,105.50
2022-11-26T05:38:26.824Z,98.60
2022-11-26T05:40:53.277Z,108.30
2022-11-26T05:43:19.964Z,107.00
2022-11-26T05:45:46.725Z,100.00
2022-11-26T05:48:13.331Z,102.10
2022-11-26T05:50:39.869Z,100.70
2022-11-26T05:53:06.525Z,89.30
2022-11-26T05:55:33.221Z,92.90
2022-11-26T05:57:59.798Z,93.10
2022-11-26T06:00:26.381Z,100.30
2022-11-26T06:02:53.054Z,97.00
2022-11-26T06:05:20.000Z,91.50
2022-11-26T06:07:46.675Z,91.70
2022-11-26T06:10:13.794Z,85.80
2022-11-26T06:12:40.463Z,78.60
2022-11-26T06:15:07.724Z,86.80
2022-11-26T06:17:34.205Z,89.80
2022-11-26T06:20:00.881Z,82.00
2022-11-26T06:22:27.272Z,83.50
2022-11-26T06:24:53.789Z,86.20
2022-11-26T06:27:20.305Z,81.10
2022-11-26T06:29:46.922Z,90.60
2022-11-26T06:32:13.541Z,96.90
2022-11-26T06:34:43.533Z,88.90
2022-11-26T06:37:10.457Z,83.20
2022-11-26T06:39:36.978Z,82.70
2022-11-26T06:42:03.481Z,75.40
2022-11-26T06:44:29.839Z,83.60
2022-11-26T06:46:59.383Z,87.50
2022-11-26T06:49:25.887Z,78.50
2022-11-26T06:51:53.719Z,76.80
2022-11-26T06:54:20.589Z,82.10
2022-11-26T06:56:47.132Z,89.60
2022-11-26T06:59:14.003Z,84.70
2022-11-26T07:01:40.897Z,88.90
2022-11-26T07:04:07.372Z,80.70
2022-11-26T07:06:33.928Z,72.30
2022-11-26T07:09:05.805Z,86.30
2022-11-26T07:11:36.617Z,80.10
2022-11-26T07:14:03.465Z,75.30
2022-11-26T07:16:30.124Z,80.20
2022-11-26T07:19:02.396Z,81.60
2022-11-26T07:21:30.013Z,75.30
2022-11-26T07:23:59.411Z,73.60
2022-11-26T07:26:26.418Z,70.30
2022-11-26T07:28:53.256Z,67.80
2022-11-26T07:31:22.461Z,75.60
2022-11-26T07:33:50.110Z,71.40
2022-11-26T07:36:23.330Z,83.70
2022-11-26T07:38:50.040Z,94.90
2022-11-26T07:41:19.514Z,85.80
2022-11-26T07:43:46.609Z,81.70
2022-11-26T07:46:17.468Z,77.00
2022-11-26T07:48:44.503Z,79.00
2022-11-26T07:51:29.207Z,71.20
2022-11-26T07:53:58.453Z,73.70
2022-11-26T07:56:26.524Z,80.80
2022-11-26T07:58:53.400Z,80.20
2022-11-26T08:01:29.890Z,91.00
2022-11-26T08:04:02.904Z,100.10
2022-11-26T08:06:30.043Z,114.10
2022-11-26T08:09:01.774Z,123.70
2022-11-26T08:11:31.358Z,143.60
2022-11-26T08:14:07.522Z,97.40
2022-11-26T08:16:34.463Z,88.80
2022-11-26T08:19:10.254Z,81.60
2022-11-26T08:21:39.003Z,87.80
2022-11-26T08:24:07.766Z,83.60
2022-11-26T08:26:38.571Z,88.70
2022-11-26T08:29:11.186Z,90.50
2022-11-26T08:31:44.870Z,90.80
2022-11-26T08:34:14.982Z,98.60
2022-11-26T08:36:41.858Z,108.40
2022-11-26T08:39:12.464Z,113.60
2022-11-26T08:41:39.417Z,112.00
2022-11-26T08:44:07.383Z,122.40
2022-11-26T08:46:40.312Z,111.20
2022-11-26T08:49:10.463Z,112.90
2022-11-26T08:51:37.462Z,120.40
2022-11-26T08:54:04.005Z,104.50
2022-11-26T08:56:30.679Z,104.40
2022-11-26T08:58:57.527Z,104.00
2022-11-26T09:01:30.311Z,118.00
2022-11-26T09:03:59.355Z,116.00
2022-11-26T09:06:29.481Z,108.30
2022-11-26T09:09:15.471Z,110.80
2022-11-26T09:11:53.549Z,111.20
2022-11-26T09:14:24.316Z,112.80
2022-11-26T09:16:52.472Z,114.60
2022-11-26T09:19:19.265Z,105.50
2022-11-26T09:21:46.418Z,99.00
2022-11-26T09:24:13.577Z,96.80
2022-11-26T09:26:40.317Z,102.30
2022-11-26T09:29:06.901Z,92.80
2022-11-26T09:31:33.558Z,87.70
2022-11-26T09:34:01.000Z,93.90
2022-11-26T09:36:27.786Z,94.60
2022-11-26T09:38:58.847Z,93.80
2022-11-26T09:41:55.737Z,92.80
2022-11-26T09:44:37.395Z,99.60
2022-11-26T09:47:12.836Z,101.10
2022-11-26T09:49:54.875Z,96.60
2022-11-26T09:52:45.355Z,103.30
2022-11-26T09:55:40.901Z,110.80
2022-11-26T09:58:40.272Z,107.10
2022-11-26T10:01:18.887Z,110.20
2022-11-26T10:03:45.637Z,106.60
2022-11-26T10:06:30.509Z,115.00
2022-11-26T10:09:11.386Z,110.50
2022-11-26T10:11:53.390Z,102.10
2022-11-26T10:14:44.002Z,81.90
2022-11-26T10:17:24.022Z,88.90
2022-11-26T10:20:27.823Z,85.40
2022-11-26T10:23:06.339Z,96.30
2022-11-26T10:25:44.699Z,93.10
2022-11-26T10:28:26.751Z,91.70
2022-11-26T10:31:05.408Z,93.20
2022-11-26T10:33:39.468Z,81.50
2022-11-26T10:36:09.468Z,83.60
2022-11-26T10:38:38.136Z,67.50
2022-11-26T10:41:05.133Z,68.40
2022-11-26T10:43:31.653Z,75.90
2022-11-26T10:45:58.537Z,71.50
2022-11-26T10:48:35.373Z,76.80
2022-11-26T10:51:29.768Z,60.80
2022-11-26T10:54:02.244Z,69.90
2022-11-26T11:01:57.536Z,70.50
2022-11-26T11:04:39.529Z,67.70
2022-11-26T11:07:38.337Z,71.50
2022-11-26T11:10:09.457Z,63.10
2022-11-26T11:12:50.336Z,58.20
2022-11-26T11:15:32.752Z,66.00
2022-11-26T11:18:32.092Z,64.60
2022-11-26T11:21:29.949Z,69.00
2022-11-26T11:24:09.354Z,64.90
2022-11-26T11:26:48.141Z,59.70
2022-11-26T11:29:31.991Z,64.40
2022-11-26T11:32:11.746Z,63.60
2022-11-26T11:34:45.394Z,59.50
2022-11-26T11:37:23.645Z,63.10
2022-11-26T11:40:14.311Z,62.30
2022-11-26T11:42:56.867Z,70.10
2022-11-26T11:45:42.104Z,68.10
2022-11-26T11:48:53.583Z,76.80
2022-11-26T11:52:03.950Z,72.20
2022-11-26T11:54:57.280Z,93.60
2022-11-26T11:57:45.784Z,93.50
2022-11-26T12:00:25.133Z,95.20
2022-11-26T12:03:45.966Z,97.10
2022-11-26T12:06:55.625Z,89.80
2022-11-26T12:10:02.422Z,83.20
2022-11-26T12:12:46.642Z,82.70
2022-11-26T12:15:25.824Z,81.90
2022-11-26T12:18:18.994Z,79.40
2022-11-26T12:24:07.863Z,71.90
2022-11-26T12:26:41.863Z,75.20
2022-11-26T12:29:41.525Z,74.00
2022-11-26T12:32:34.637Z,75.50
2022-11-26T12:35:11.303Z,66.00
2022-11-26T12:37:42.866Z,68.50
2022-11-26T12:40:26.594Z,68.60
2022-11-26T12:43:25.861Z,61.60
2022-11-26T12:46:05.629Z,80.10
2022-11-26T12:49:04.171Z,66.70
2022-11-26T12:52:13.752Z,68.10
2022-11-26T12:55:01.585Z,62.20
2022-11-26T12:57:40.486Z,76.90
2022-11-26T13:00:54.938Z,75.60
2022-11-26T13:03:33.759Z,76.20
2022-11-26T13:06:20.506Z,75.10
2022-11-26T13:09:03.768Z,74.80
2022-11-26T13:12:32.108Z,74.70
2022-11-26T13:15:38.085Z,65.80
2022-11-26T13:18:17.147Z,72.40
2022-11-26T13:21:22.361Z,76.20
2022-11-26T13:24:08.018Z,70.20
2022-11-26T13:26:44.215Z,71.40
2022-11-26T13:29:49.896Z,67.30
2022-11-26T13:33:08.417Z,69.50
2022-11-26T13:36:37.812Z,63.10
2022-11-26T13:39:30.882Z,72.70
2022-11-26T13:42:49.949Z,73.90
2022-11-26T13:45:46.105Z,68.90
2022-11-26T13:48:45.585Z,66.30
2022-11-26T13:51:25.871Z,71.60
2022-11-26T13:53:53.665Z,69.80
2022-11-26T13:56:26.800Z,64.60
2022-11-26T13:59:00.783Z,71.50
2022-11-26T14:01:37.356Z,73.10
2022-11-26T14:04:36.286Z,79.50
2022-11-26T14:07:04.132Z,76.20
2022-11-26T14:09:47.388Z,82.30
2022-11-26T14:12:20.505Z,76.40
2022-11-26T14:14:51.724Z,79.10
2022-11-26T14:17:24.258Z,87.20
2022-11-26T14:19:54.114Z,89.50
2022-11-26T14:22:22.275Z,120.10
2022-11-26T14:24:50.567Z,100.50
2022-11-26T14:27:21.068Z,69.90
2022-11-26T14:30:09.372Z,73.10
2022-11-26T14:33:11.568Z,69.30
2022-11-26T14:35:40.450Z,65.70
2022-11-26T14:38:28.808Z,64.90
2022-11-26T14:40:59.563Z,68.00
2022-11-26T14:50:25.356Z,68.80
2022-11-26T14:53:01.888Z,70.00
2022-11-26T14:55:32.066Z,69.50
2022-11-26T14:58:15.088Z,69.50
2022-11-26T15:00:43.601Z,78.80
2022-11-26T15:03:28.831Z,77.30
2022-11-26T15:05:57.266Z,86.40
2022-11-26T15:08:27.297Z,83.80
2022-11-26T15:11:03.355Z,72.30
2022-11-26T15:13:39.874Z,76.20
2022-11-26T15:16:47.872Z,78.40
2022-11-26T15:19:20.041Z,72.90
2022-11-26T15:21:48.876Z,70.20
2022-11-26T15:24:18.553Z,78.20
2022-11-26T15:26:50.153Z,85.10
2022-11-26T15:29:41.404Z,93.90
2022-11-26T15:32:32.502Z,86.80
2022-11-26T15:35:02.988Z,93.50
2022-11-26T15:37:31.198Z,104.10
2022-11-26T15:40:25.586Z,92.10
2022-11-26T15:43:03.393Z,83.30
2022-11-26T15:45:42.263Z,78.90
2022-11-26T15:48:51.902Z,85.40
2022-11-26T15:51:35.500Z,84.10
2022-11-26T15:54:38.344Z,90.10
2022-11-26T15:57:33.718Z,102.00
2022-11-26T16:00:08.599Z,89.10
2022-11-26T16:02:39.144Z,94.00
2022-11-26T16:05:41.873Z,91.30
2022-11-26T16:08:31.222Z,105.40
2022-11-26T16:11:10.744Z,105.30
2022-11-26T16:13:39.052Z,111.60
2022-11-26T16:16:21.580Z,139.80
2022-11-26T16:19:04.870Z,200.80
2022-11-26T16:21:34.925Z,182.50
2022-11-26T16:24:25.732Z,160.60
2022-11-26T16:26:59.614Z,93.20
2022-11-26T16:29:30.772Z,116.00
2022-11-26T16:31:59.298Z,119.70
2022-11-26T16:34:28.280Z,122.90
2022-11-26T16:37:24.045Z,105.50
2022-11-26T16:40:00.327Z,118.50
2022-11-26T16:42:31.854Z,110.50
2022-11-26T16:45:04.200Z,123.60
2022-11-26T16:47:42.365Z,117.00
2022-11-26T16:50:25.285Z,110.00
2022-11-26T16:52:55.166Z,110.70
2022-11-26T16:55:26.988Z,102.80
2022-11-26T16:58:00.403Z,120.50
2022-11-26T17:00:41.486Z,107.30
2022-11-26T17:03:14.308Z,105.00
2022-11-26T17:05:45.356Z,115.80
2022-11-26T17:08:16.056Z,118.20
2022-11-26T17:10:52.428Z,121.30
2022-11-26T17:13:21.037Z,138.40
2022-11-26T17:15:51.021Z,127.90
2022-11-26T17:18:24.755Z,128.70
2022-11-26T17:20:54.333Z,134.30
2022-11-26T17:23:22.221Z,117.80
2022-11-26T17:25:53.960Z,122.50
2022-11-26T17:28:23.339Z,122.40
2022-11-26T17:30:51.499Z,129.50
2022-11-26T17:33:19.598Z,132.70
2022-11-26T17:35:50.954Z,124.00
2022-11-26T17:38:21.162Z,152.70
2022-11-26T17:40:49.182Z,153.50
2022-11-26T17:43:17.324Z,154.50
2022-11-26T17:45:45.928Z,128.70
2022-11-26T17:48:14.295Z,110.70
2022-11-26T17:50:43.102Z,96.40
2022-11-26T17:53:12.095Z,108.00
2022-11-26T17:55:40.202Z,94.00
2022-11-26T17:58:11.551Z,100.00
2022-11-26T18:00:40.791Z,100.10
2022-11-26T18:03:09.224Z,98.70
2022-11-26T18:05:44.896Z,101.60
2022-11-26T18:08:13.479Z,123.00
2022-11-26T18:10:42.007Z,106.90
2022-11-26T18:13:10.283Z,126.70
2022-11-26T18:15:38.743Z,131.10
2022-11-26T18:18:08.092Z,93.30
2022-11-26T18:20:36.884Z,91.00
2022-11-26T18:23:07.234Z,87.40
2022-11-26T18:25:35.415Z,85.80
2022-11-26T18:28:08.042Z,83.00
2022-11-26T18:33:07.923Z,106.30
2022-11-26T18:35:35.883Z,91.60
2022-11-26T18:38:07.963Z,109.40
2022-11-26T18:40:37.023Z,106.10
2022-11-26T18:43:11.035Z,96.20
2022-11-26T18:45:44.767Z,101.00
2022-11-26T18:48:14.971Z,99.50
2022-11-26T18:50:44.652Z,106.50
2022-11-26T18:53:13.892Z,95.70
2022-11-26T18:55:42.941Z,97.40
2022-11-26T18:58:11.177Z,102.60
2022-11-26T19:00:39.247Z,95.00
2022-11-26T19:03:07.081Z,100.40
2022-11-26T19:05:37.597Z,93.60
2022-11-26T19:08:06.670Z,93.60
2022-11-26T19:10:37.039Z,101.20
2022-11-26T19:13:05.376Z,100.00
2022-11-26T19:15:33.352Z,109.70
2022-11-26T19:18:01.947Z,109.00
2022-11-26T19:20:29.946Z,105.30
2022-11-26T19:22:57.993Z,105.90
2022-11-26T19:25:26.057Z,183.60
2022-11-26T19:27:58.955Z,133.80
2022-11-26T19:30:30.338Z,121.60
2022-11-26T19:32:58.502Z,118.90
2022-11-26T19:35:26.935Z,102.20
2022-11-26T19:37:54.847Z,98.50
2022-11-26T19:40:23.304Z,119.30
2022-11-26T19:42:51.532Z,113.10
2022-11-26T19:45:19.525Z,122.90
2022-11-26T19:47:47.516Z,110.50
2022-11-26T19:50:16.135Z,109.60
2022-11-26T19:52:47.935Z,116.10
2022-11-26T19:55:16.318Z,119.00
2022-11-26T19:57:44.503Z,114.90
2022-11-26T20:00:13.577Z,112.70
2022-11-26T20:02:41.647Z,119.80
2022-11-26T20:05:09.691Z,118.70
2022-11-26T20:07:37.735Z,114.20
2022-11-26T20:10:06.875Z,113.40
2022-11-26T20:12:34.947Z,119.90
2022-11-26T20:15:02.972Z,119.30
2022-11-26T20:17:30.877Z,117.60
2022-11-26T20:19:58.747Z,111.30
2022-11-26T20:22:28.206Z,104.80
2022-11-26T20:24:56.367Z,107.60
2022-11-26T20:27:24.545Z,103.30
2022-11-26T20:29:52.571Z,98.80
2022-11-26T20:32:20.989Z,99.90
2022-11-26T20:34:49.088Z,94.70
2022-11-26T20:37:17.248Z,104.70
2022-11-26T20:39:45.286Z,101.40
2022-11-26T20:42:17.864Z,108.20
2022-11-26T20:44:46.366Z,97.30
2022-11-26T20:47:15.106Z,107.80
2022-11-26T20:49:43.509Z,88.90
2022-11-26T20:52:11.791Z,106.30
2022-11-26T20:54:40.259Z,104.00
2022-11-26T20:57:08.271Z,91.40
2022-11-26T20:59:38.010Z,106.90
2022-11-26T21:02:06.860Z,101.90
2022-11-26T21:04:35.047Z,104.40
2022-11-26T21:07:04.372Z,99.40
2022-11-26T21:09:32.379Z,102.00
2022-11-26T21:12:00.732Z,109.20
2022-11-26T21:14:29.902Z,101.50
2022-11-26T21:16:58.243Z,104.60
2022-11-26T21:19:26.445Z,102.20
2022-11-26T21:21:54.986Z,104.50
2022-11-26T21:24:23.055Z,116.50
2022-11-26T21:26:51.171Z,102.60
2022-11-26T21:29:19.118Z,102.90
2022-11-26T21:31:47.378Z,109.60
2022-11-26T21:34:15.439Z,108.90
2022-11-26T21:36:43.453Z,94.20
2022-11-26T21:39:15.563Z,100.00
2022-11-26T21:41:43.504Z,105.50
2022-11-26T21:44:11.731Z,108.20
2022-11-26T21:46:40.272Z,104.50
2022-11-26T21:49:08.435Z,108.40
2022-11-26T21:51:37.111Z,103.60
2022-11-26T21:54:15.227Z,97.60
2022-11-26T21:56:51.981Z,105.80
2022-11-26T21:59:28.978Z,95.60
2022-11-26T22:01:56.951Z,99.40
2022-11-26T22:04:24.981Z,99.50
2022-11-26T22:06:53.059Z,86.40
2022-11-26T22:09:21.114Z,86.50
2022-11-26T22:11:49.782Z,93.30
2022-11-26T22:14:17.982Z,92.30
2022-11-26T22:16:48.270Z,89.20
2022-11-26T22:19:16.199Z,100.50
2022-11-26T22:21:50.971Z,101.80
2022-11-26T22:24:20.421Z,95.10
2022-11-26T22:26:48.451Z,102.40
2022-11-26T22:29:19.184Z,96.60
2022-11-26T22:31:48.474Z,104.40
2022-11-26T22:34:22.219Z,95.30
2022-11-26T22:36:51.043Z,92.40
2022-11-26T22:39:20.203Z,94.90
2022-11-26T22:41:48.943Z,88.30
2022-11-26T22:44:17.945Z,92.60
2022-11-26T22:46:46.132Z,96.10
2022-11-26T22:49:18.918Z,95.10
2022-11-26T22:54:16.254Z,88.30
2022-11-26T22:56:44.791Z,93.30
2022-11-26T22:59:14.675Z,89.80
2022-11-26T23:01:42.554Z,92.00
2022-11-26T23:04:11.422Z,95.00
2022-11-26T23:06:41.428Z,90.10
2022-11-26T23:09:11.304Z,94.80
2022-11-26T23:11:42.004Z,102.20
2022-11-26T23:14:12.289Z,96.40
2022-11-26T23:16:42.483Z,111.40
2022-11-26T23:19:15.856Z,111.80
2022-11-26T23:21:46.763Z,106.20
2022-11-26T23:24:15.724Z,104.40
2022-11-26T23:26:44.560Z,112.90
2022-11-26T23:29:12.910Z,122.10
2022-11-26T23:31:44.580Z,117.10
2022-11-26T23:34:14.005Z,112.70
2022-11-26T23:36:42.329Z,112.20
2022-11-26T23:39:12.694Z,105.80
2022-11-26T23:41:40.774Z,108.80
2022-11-26T23:44:08.830Z,100.30
2022-11-26T23:46:36.755Z,104.00
2022-11-26T23:49:05.076Z,100.40
2022-11-26T23:51:33.769Z,98.00
2022-11-26T23:54:01.937Z,91.80
2022-11-26T23:56:32.570Z,98.60
2022-11-26T23:59:04.862Z,101.10
